createdAt,value
2017-05-05T00:00:45.364Z,94.10
2017-05-05T00:01:44.331Z,93.89
2017-05-05T00:02:44.328Z,93.96
2017-05-05T00:03:44.450Z,93.89
2017-05-05T00:04:44.370Z,93.85
2017-05-05T00:05:44.344Z,93.81
2017-05-05T00:06:44.342Z,93.96
2017-05-05T00:07:44.350Z,93.81
2017-05-05T00:08:44.455Z,93.64
2017-05-05T00:09:44.347Z,93.62
2017-05-05T00:10:44.334Z,93.70
2017-05-05T00:11:44.350Z,93.64
2017-05-05T00:12:44.350Z,93.62
2017-05-05T00:13:44.345Z,93.75
2017-05-05T00:14:44.372Z,93.56
2017-05-05T00:15:44.396Z,93.45
2017-05-05T00:16:44.396Z,93.56
2017-05-05T00:17:44.355Z,93.59
2017-05-05T00:18:44.322Z,93.51
2017-05-05T00:19:44.357Z,93.32
2017-05-05T00:20:44.326Z,93.48
2017-05-05T00:21:44.332Z,93.24
2017-05-05T00:22:44.331Z,93.40
2017-05-05T00:23:44.329Z,93.37
2017-05-05T00:24:44.333Z,93.26
2017-05-05T00:25:44.328Z,93.40
2017-05-05T00:26:44.332Z,93.64
2017-05-05T00:27:44.328Z,93.54
2017-05-05T00:28:44.333Z,93.37
2017-05-05T00:29:44.326Z,93.59
2017-05-05T00:30:44.365Z,93.37
2017-05-05T00:31:44.359Z,93.48
2017-05-05T00:32:44.359Z,93.45
2017-05-05T00:33:44.352Z,93.83
2017-05-05T00:34:44.358Z,93.64
2017-05-05T00:35:44.373Z,93.70
2017-05-05T00:36:44.355Z,93.81
2017-05-05T00:37:44.325Z,93.89
2017-05-05T00:38:44.359Z,93.78
2017-05-05T00:39:44.365Z,93.99
2017-05-05T00:40:44.364Z,93.96
2017-05-05T00:41:44.470Z,93.72
2017-05-05T00:42:44.337Z,93.70
2017-05-05T00:43:44.365Z,93.94
2017-05-05T00:44:44.389Z,94.15
2017-05-05T00:45:44.366Z,94.42
2017-05-05T00:46:44.363Z,94.37
2017-05-05T00:47:44.366Z,94.34
2017-05-05T00:48:44.470Z,94.42
2017-05-05T00:49:44.371Z,94.72
2017-05-05T00:50:44.341Z,94.96
2017-05-05T00:51:44.341Z,95.10
2017-05-05T00:52:44.342Z,95.07
2017-05-05T00:53:44.355Z,94.59
2017-05-05T00:54:44.340Z,94.80
2017-05-05T00:55:44.341Z,94.53
2017-05-05T00:56:44.339Z,94.75
2017-05-05T00:57:44.339Z,94.75
2017-05-05T00:58:44.343Z,94.96
2017-05-05T00:59:44.342Z,95.10
2017-05-05T01:00:44.344Z,95.20
2017-05-05T01:01:44.358Z,95.12
2017-05-05T01:02:44.400Z,95.18
2017-05-05T01:03:44.365Z,95.26
2017-05-05T01:04:44.372Z,94.96
2017-05-05T01:05:44.382Z,94.86
2017-05-05T01:06:44.343Z,94.93
2017-05-05T01:07:44.350Z,94.83
2017-05-05T01:08:44.346Z,94.83
2017-05-05T01:09:44.380Z,94.83
2017-05-05T01:10:44.316Z,94.80
2017-05-05T01:11:44.327Z,94.61
2017-05-05T01:12:44.281Z,94.59
2017-05-05T01:13:44.278Z,94.75
2017-05-05T01:14:44.283Z,94.67
2017-05-05T01:15:44.339Z,94.61
2017-05-05T01:16:44.289Z,94.75
2017-05-05T01:17:44.292Z,94.77
2017-05-05T01:18:44.290Z,94.75
2017-05-05T01:19:44.381Z,94.69
2017-05-05T01:20:44.367Z,94.83
2017-05-05T01:21:44.371Z,94.91
2017-05-05T01:22:44.366Z,94.93
2017-05-05T01:23:44.369Z,94.83
2017-05-05T01:24:44.380Z,94.77
2017-05-05T01:25:44.369Z,94.88
2017-05-05T01:26:44.371Z,94.96
2017-05-05T01:27:44.381Z,94.93
2017-05-05T01:28:44.373Z,94.99
2017-05-05T01:29:44.369Z,94.99
2017-05-05T01:30:44.374Z,94.99
2017-05-05T01:31:44.349Z,94.93
2017-05-05T01:32:44.375Z,95.12
2017-05-05T01:33:44.397Z,94.93
2017-05-05T01:34:44.410Z,94.96
2017-05-05T01:35:44.397Z,95.10
2017-05-05T01:36:44.394Z,94.96
2017-05-05T01:37:44.385Z,94.99
2017-05-05T01:38:44.395Z,94.96
2017-05-05T01:39:44.403Z,95.04
2017-05-05T01:40:44.392Z,95.10
2017-05-05T01:41:44.415Z,95.34
2017-05-05T01:42:44.398Z,95.15
2017-05-05T01:43:44.397Z,95.15
2017-05-05T01:44:44.390Z,94.96
2017-05-05T01:45:44.393Z,94.96
2017-05-05T01:46:44.397Z,95.04
2017-05-05T01:47:44.363Z,94.96
2017-05-05T01:48:44.501Z,95.01
2017-05-05T01:49:44.502Z,94.96
2017-05-05T01:50:44.402Z,94.88
2017-05-05T01:51:44.375Z,94.88
2017-05-05T01:52:44.373Z,94.83
2017-05-05T01:53:44.374Z,94.93
2017-05-05T01:54:44.374Z,94.99
2017-05-05T01:55:44.375Z,94.99
2017-05-05T01:56:44.375Z,94.99
2017-05-05T01:57:44.379Z,94.96
2017-05-05T01:58:44.380Z,94.83
2017-05-05T01:59:44.375Z,94.80
2017-05-05T02:00:44.380Z,94.83
2017-05-05T02:01:44.385Z,94.86
2017-05-05T02:02:44.408Z,94.99
2017-05-05T02:03:44.377Z,94.96
2017-05-05T02:04:44.408Z,95.12
2017-05-05T02:05:44.406Z,95.20
2017-05-05T02:06:44.400Z,95.31
2017-05-05T02:07:44.419Z,95.37
2017-05-05T02:08:44.394Z,95.34
2017-05-05T02:09:44.412Z,95.37
2017-05-05T02:10:44.404Z,95.45
2017-05-05T02:11:44.545Z,95.39
2017-05-05T02:12:44.417Z,95.34
2017-05-05T02:13:44.412Z,95.39
2017-05-05T02:14:44.378Z,95.23
2017-05-05T02:15:44.517Z,95.34
2017-05-05T02:16:44.368Z,95.39
2017-05-05T02:17:44.433Z,95.34
2017-05-05T02:18:44.413Z,95.37
2017-05-05T02:19:44.441Z,95.31
2017-05-05T02:20:44.415Z,95.37
2017-05-05T02:21:44.400Z,95.34
2017-05-05T02:22:44.401Z,95.26
2017-05-05T02:23:44.430Z,95.34
2017-05-05T02:24:44.405Z,95.42
2017-05-05T02:25:44.397Z,95.61
2017-05-05T02:26:44.403Z,95.47
2017-05-05T02:27:44.404Z,95.39
2017-05-05T02:28:44.403Z,95.39
2017-05-05T02:29:44.400Z,95.34
2017-05-05T02:30:44.403Z,95.39
2017-05-05T02:31:44.415Z,95.47
2017-05-05T02:32:44.441Z,95.47
2017-05-05T02:33:44.417Z,95.47
2017-05-05T02:34:44.420Z,95.53
2017-05-05T02:35:44.397Z,95.58
2017-05-05T02:36:44.417Z,95.58
2017-05-05T02:37:44.445Z,95.64
2017-05-05T02:38:44.427Z,95.77
2017-05-05T02:39:44.427Z,95.77
2017-05-05T02:40:44.424Z,95.88
2017-05-05T02:41:44.410Z,95.88
2017-05-05T02:42:44.385Z,95.77
2017-05-05T02:43:44.409Z,95.77
2017-05-05T02:44:44.414Z,95.77
2017-05-05T02:45:44.408Z,95.75
2017-05-05T02:46:44.415Z,95.75
2017-05-05T02:47:44.411Z,95.88
2017-05-05T02:48:44.414Z,95.91
2017-05-05T02:49:44.415Z,95.80
2017-05-05T02:50:44.493Z,95.88
2017-05-05T02:51:44.401Z,95.98
2017-05-05T02:52:44.403Z,95.91
2017-05-05T02:53:44.398Z,95.94
2017-05-05T02:54:44.403Z,95.88
2017-05-05T02:55:44.403Z,95.77
2017-05-05T02:56:44.405Z,95.85
2017-05-05T02:57:44.404Z,95.88
2017-05-05T02:58:44.404Z,95.77
2017-05-05T02:59:44.405Z,95.80
2017-05-05T03:00:44.405Z,95.80
2017-05-05T03:01:44.439Z,95.91
2017-05-05T03:02:44.458Z,96.02
2017-05-05T03:03:44.441Z,96.02
2017-05-05T03:04:44.405Z,96.07
2017-05-05T03:05:44.444Z,96.02
2017-05-05T03:06:44.440Z,96.02
2017-05-05T03:07:44.443Z,96.04
2017-05-05T03:08:44.408Z,96.15
2017-05-05T03:09:44.440Z,96.13
2017-05-05T03:10:44.541Z,96.23
2017-05-05T03:11:44.446Z,96.31
2017-05-05T03:12:44.542Z,96.42
2017-05-05T03:13:44.421Z,96.34
2017-05-05T03:14:44.463Z,96.31
2017-05-05T03:15:44.436Z,96.26
2017-05-05T03:16:44.438Z,96.34
2017-05-05T03:17:44.425Z,96.39
2017-05-05T03:18:44.445Z,96.47
2017-05-05T03:19:44.445Z,96.53
2017-05-05T03:20:44.546Z,96.47
2017-05-05T03:21:44.449Z,96.42
2017-05-05T03:22:44.442Z,96.34
2017-05-05T03:23:44.408Z,96.39
2017-05-05T03:24:44.549Z,96.53
2017-05-05T03:25:44.447Z,96.66
2017-05-05T03:26:44.553Z,96.72
2017-05-05T03:27:44.439Z,96.69
2017-05-05T03:28:44.453Z,96.66
2017-05-05T03:29:44.467Z,96.69
2017-05-05T03:30:44.451Z,96.72
2017-05-05T03:31:44.435Z,96.66
2017-05-05T03:32:44.435Z,96.53
2017-05-05T03:33:44.431Z,96.45
2017-05-05T03:34:44.431Z,96.47
2017-05-05T03:35:44.432Z,96.58
2017-05-05T03:36:44.440Z,96.72
2017-05-05T03:37:44.437Z,96.80
2017-05-05T03:38:44.435Z,96.72
2017-05-05T03:39:44.437Z,96.80
2017-05-05T03:40:44.434Z,96.83
2017-05-05T03:41:44.437Z,96.88
2017-05-05T03:42:44.439Z,96.91
2017-05-05T03:43:44.444Z,96.93
2017-05-05T03:44:44.439Z,96.99
2017-05-05T03:45:44.453Z,96.88
2017-05-05T03:46:44.440Z,96.96
2017-05-05T03:47:44.444Z,96.96
2017-05-05T03:48:44.445Z,97.02
2017-05-05T03:49:44.442Z,97.04
2017-05-05T03:50:44.445Z,97.04
2017-05-05T03:51:44.439Z,97.04
2017-05-05T03:52:44.458Z,97.07
2017-05-05T03:53:44.447Z,97.07
2017-05-05T03:54:44.440Z,97.10
2017-05-05T03:55:44.459Z,97.15
2017-05-05T03:56:44.461Z,97.18
2017-05-05T03:57:44.480Z,97.21
2017-05-05T03:58:44.505Z,97.21
2017-05-05T03:59:44.464Z,97.18
2017-05-05T04:00:44.449Z,97.23
2017-05-05T04:01:44.434Z,97.15
2017-05-05T04:02:44.436Z,97.10
2017-05-05T04:03:44.435Z,97.04
2017-05-05T04:04:44.444Z,97.02
2017-05-05T04:05:44.435Z,96.93
2017-05-05T04:06:44.435Z,96.91
2017-05-05T04:07:44.438Z,96.91
2017-05-05T04:08:44.437Z,96.85
2017-05-05T04:09:44.438Z,96.88
2017-05-05T04:10:44.441Z,96.80
2017-05-05T04:11:44.470Z,96.80
2017-05-05T04:12:44.432Z,96.66
2017-05-05T04:13:44.472Z,96.53
2017-05-05T04:14:44.547Z,96.55
2017-05-05T04:15:44.470Z,96.55
2017-05-05T04:16:44.474Z,96.55
2017-05-05T04:17:44.472Z,96.45
2017-05-05T04:18:44.491Z,96.36
2017-05-05T04:19:44.497Z,96.31
2017-05-05T04:20:44.493Z,96.31
2017-05-05T04:21:44.453Z,96.36
2017-05-05T04:22:44.452Z,96.50
2017-05-05T04:23:44.456Z,96.53
2017-05-05T04:24:44.459Z,96.53
2017-05-05T04:25:44.462Z,96.55
2017-05-05T04:26:44.459Z,96.55
2017-05-05T04:27:44.461Z,96.58
2017-05-05T04:28:44.463Z,96.55
2017-05-05T04:29:44.484Z,96.58
2017-05-05T04:30:44.459Z,96.61
2017-05-05T04:31:44.449Z,96.61
2017-05-05T04:32:44.446Z,96.69
2017-05-05T04:33:44.452Z,96.64
2017-05-05T04:34:44.448Z,96.55
2017-05-05T04:35:44.457Z,96.69
2017-05-05T04:36:44.450Z,96.80
2017-05-05T04:37:44.449Z,96.80
2017-05-05T04:38:44.450Z,96.80
2017-05-05T04:39:44.471Z,96.88
2017-05-05T04:40:44.473Z,96.85
2017-05-05T04:41:44.452Z,96.69
2017-05-05T04:42:44.457Z,96.74
2017-05-05T04:43:44.452Z,96.80
2017-05-05T04:44:44.453Z,96.83
2017-05-05T04:45:44.455Z,96.80
2017-05-05T04:46:44.456Z,96.74
2017-05-05T04:47:44.455Z,96.72
2017-05-05T04:48:44.455Z,96.66
2017-05-05T04:49:44.457Z,96.50
2017-05-05T04:50:44.454Z,96.42
2017-05-05T04:51:44.465Z,96.45
2017-05-05T04:52:44.469Z,96.42
2017-05-05T04:53:44.481Z,96.45
2017-05-05T04:54:44.470Z,96.23
2017-05-05T04:55:44.471Z,96.15
2017-05-05T04:56:44.469Z,95.98
2017-05-05T04:57:44.477Z,95.94
2017-05-05T04:58:44.473Z,95.98
2017-05-05T04:59:44.473Z,96.02
2017-05-05T05:00:44.473Z,96.20
2017-05-05T05:01:45.485Z,96.34
2017-05-05T05:02:44.463Z,96.28
2017-05-05T05:03:44.460Z,96.17
2017-05-05T05:04:44.463Z,96.23
2017-05-05T05:05:44.467Z,96.07
2017-05-05T05:06:44.464Z,96.02
2017-05-05T05:07:44.463Z,96.09
2017-05-05T05:08:44.464Z,96.15
2017-05-05T05:09:44.463Z,96.09
2017-05-05T05:10:44.467Z,96.15
2017-05-05T05:11:44.463Z,96.34
2017-05-05T05:12:44.599Z,96.26
2017-05-05T05:13:44.501Z,96.09
2017-05-05T05:14:44.500Z,95.96
2017-05-05T05:15:44.501Z,95.75
2017-05-05T05:16:44.477Z,95.85
2017-05-05T05:17:44.497Z,95.94
2017-05-05T05:18:44.605Z,96.09
2017-05-05T05:19:44.503Z,95.83
2017-05-05T05:20:44.498Z,96.15
2017-05-05T05:21:44.506Z,96.02
2017-05-05T05:22:44.475Z,95.72
2017-05-05T05:23:44.473Z,95.61
2017-05-05T05:24:44.471Z,95.42
2017-05-05T05:25:44.475Z,95.47
2017-05-05T05:26:44.476Z,95.61
2017-05-05T05:27:44.458Z,95.69
2017-05-05T05:28:44.470Z,95.72
2017-05-05T05:29:44.478Z,95.66
2017-05-05T05:30:44.479Z,95.69
2017-05-05T05:31:44.478Z,95.77
2017-05-05T05:32:44.474Z,95.53
2017-05-05T05:33:44.470Z,95.42
2017-05-05T05:34:44.473Z,95.20
2017-05-05T05:35:44.472Z,95.15
2017-05-05T05:36:44.474Z,95.15
2017-05-05T05:37:44.478Z,95.26
2017-05-05T05:38:44.479Z,94.86
2017-05-05T05:39:44.480Z,94.59
2017-05-05T05:40:44.483Z,94.77
2017-05-05T05:41:44.477Z,94.88
2017-05-05T05:42:44.509Z,94.96
2017-05-05T05:43:44.613Z,94.45
2017-05-05T05:44:44.626Z,94.72
2017-05-05T05:45:44.519Z,94.40
2017-05-05T05:46:44.516Z,94.45
2017-05-05T05:47:44.517Z,94.61
2017-05-05T05:48:44.493Z,94.69
2017-05-05T05:49:44.541Z,94.42
2017-05-05T05:50:44.514Z,94.40
2017-05-05T05:51:44.515Z,93.62
2017-05-05T05:52:44.507Z,93.91
2017-05-05T05:53:44.499Z,94.23
2017-05-05T05:54:44.500Z,94.10
2017-05-05T05:55:44.503Z,93.99
2017-05-05T05:56:44.501Z,94.15
2017-05-05T05:57:44.499Z,93.78
2017-05-05T05:58:44.503Z,93.72
2017-05-05T05:59:44.501Z,93.81
2017-05-05T06:00:44.507Z,94.02
2017-05-05T06:01:44.504Z,93.85
2017-05-05T06:02:44.521Z,93.29
2017-05-05T06:03:44.540Z,93.24
2017-05-05T06:04:44.524Z,93.59
2017-05-05T06:05:44.549Z,93.59
2017-05-05T06:06:44.542Z,93.37
2017-05-05T06:07:44.533Z,93.24
2017-05-05T06:08:44.546Z,93.62
2017-05-05T06:09:44.527Z,93.10
2017-05-05T06:10:44.548Z,93.16
2017-05-05T06:11:44.529Z,92.24
2017-05-05T06:12:44.469Z,92.32
2017-05-05T06:13:44.527Z,91.71
2017-05-05T06:14:44.493Z,91.90
2017-05-05T06:15:44.478Z,91.20
2017-05-05T06:16:44.491Z,91.71
2017-05-05T06:17:44.420Z,91.79
2017-05-05T06:18:44.478Z,91.95
2017-05-05T06:19:44.494Z,92.05
2017-05-05T06:20:44.420Z,92.05
2017-05-05T06:21:44.436Z,92.27
2017-05-05T06:22:44.515Z,92.03
2017-05-05T06:23:44.518Z,91.84
2017-05-05T06:24:44.515Z,90.74
2017-05-05T06:25:44.517Z,91.41
2017-05-05T06:26:44.619Z,91.01
2017-05-05T06:27:44.515Z,90.45
2017-05-05T06:28:44.518Z,89.80
2017-05-05T06:29:44.516Z,89.03
2017-05-05T06:30:44.514Z,89.14
2017-05-05T06:31:44.523Z,89.88
2017-05-05T06:32:44.537Z,90.26
2017-05-05T06:33:44.540Z,90.09
2017-05-05T06:34:44.535Z,90.20
2017-05-05T06:35:44.533Z,90.71
2017-05-05T06:36:44.500Z,89.91
2017-05-05T06:37:44.538Z,90.34
2017-05-05T06:38:44.562Z,90.74
2017-05-05T06:39:44.531Z,91.14
2017-05-05T06:40:44.542Z,90.58
2017-05-05T06:41:44.551Z,90.88
2017-05-05T06:42:44.546Z,90.71
2017-05-05T06:43:44.544Z,89.11
2017-05-05T06:44:44.540Z,89.43
2017-05-05T06:45:44.545Z,89.03
2017-05-05T06:46:44.546Z,88.36
2017-05-05T06:47:44.532Z,88.97
2017-05-05T06:48:44.530Z,89.62
2017-05-05T06:49:44.542Z,89.40
2017-05-05T06:50:44.556Z,89.86
2017-05-05T06:51:44.550Z,89.75
2017-05-05T06:52:44.572Z,90.07
2017-05-05T06:53:44.581Z,90.07
2017-05-05T06:54:44.513Z,90.34
2017-05-05T06:55:44.548Z,90.31
2017-05-05T06:56:44.512Z,89.88
2017-05-05T06:57:44.554Z,89.83
2017-05-05T06:58:44.547Z,89.75
2017-05-05T06:59:44.572Z,89.62
2017-05-05T07:00:44.547Z,89.75
2017-05-05T07:01:44.573Z,90.09
2017-05-05T07:02:44.529Z,89.72
2017-05-05T07:03:44.531Z,89.80
2017-05-05T07:04:44.531Z,90.15
2017-05-05T07:05:44.531Z,89.94
2017-05-05T07:06:44.532Z,89.19
2017-05-05T07:07:44.537Z,89.67
2017-05-05T07:08:44.530Z,89.78
2017-05-05T07:09:44.546Z,89.80
2017-05-05T07:10:44.532Z,90.36
2017-05-05T07:11:44.616Z,90.18
2017-05-05T07:12:44.557Z,90.50
2017-05-05T07:13:44.559Z,90.34
2017-05-05T07:14:44.557Z,89.75
2017-05-05T07:15:44.527Z,89.51
2017-05-05T07:16:44.564Z,88.95
2017-05-05T07:17:44.535Z,89.51
2017-05-05T07:18:44.667Z,89.75
2017-05-05T07:19:44.529Z,90.18
2017-05-05T07:20:44.564Z,89.94
2017-05-05T07:21:44.559Z,90.90
2017-05-05T07:22:44.522Z,90.53
2017-05-05T07:23:44.628Z,90.45
2017-05-05T07:24:44.563Z,89.56
2017-05-05T07:25:44.547Z,89.00
2017-05-05T07:26:44.569Z,88.50
2017-05-05T07:27:44.566Z,87.96
2017-05-05T07:28:44.571Z,87.88
2017-05-05T07:29:44.675Z,88.31
2017-05-05T07:30:44.568Z,88.36
2017-05-05T07:31:44.562Z,88.62
2017-05-05T07:32:44.534Z,88.62
2017-05-05T07:33:44.540Z,88.68
2017-05-05T07:34:44.538Z,89.16
2017-05-05T07:35:44.541Z,88.84
2017-05-05T07:36:44.537Z,88.60
2017-05-05T07:37:44.545Z,88.20
2017-05-05T07:38:44.540Z,87.56
2017-05-05T07:39:44.540Z,87.90
2017-05-05T07:40:44.540Z,87.74
2017-05-05T07:41:44.547Z,87.74
2017-05-05T07:42:44.559Z,87.69
2017-05-05T07:43:44.556Z,87.69
2017-05-05T07:44:44.554Z,87.85
2017-05-05T07:45:44.557Z,87.53
2017-05-05T07:46:44.562Z,87.21
2017-05-05T07:47:44.562Z,87.32
2017-05-05T07:48:44.561Z,87.26
2017-05-05T07:49:44.558Z,87.18
2017-05-05T07:50:44.561Z,87.80
2017-05-05T07:51:44.560Z,87.59
2017-05-05T07:52:44.601Z,87.43
2017-05-05T07:53:44.599Z,87.67
2017-05-05T07:54:44.553Z,87.56
2017-05-05T07:55:44.582Z,87.45
2017-05-05T07:56:44.578Z,87.82
2017-05-05T07:57:44.579Z,87.32
2017-05-05T07:58:44.579Z,87.85
2017-05-05T07:59:44.577Z,87.59
2017-05-05T08:00:44.584Z,86.15
2017-05-05T08:01:44.573Z,86.73
2017-05-05T08:02:44.584Z,85.75
2017-05-05T08:03:44.586Z,86.54
2017-05-05T08:04:44.579Z,86.46
2017-05-05T08:05:44.605Z,87.16
2017-05-05T08:06:44.583Z,86.73
2017-05-05T08:07:44.545Z,87.61
2017-05-05T08:08:44.561Z,87.48
2017-05-05T08:09:44.585Z,87.72
2017-05-05T08:10:44.605Z,87.69
2017-05-05T08:11:44.582Z,87.43
2017-05-05T08:12:44.568Z,87.21
2017-05-05T08:13:44.554Z,87.32
2017-05-05T08:14:44.554Z,86.38
2017-05-05T08:15:44.557Z,87.00
2017-05-05T08:16:44.559Z,86.49
2017-05-05T08:17:44.557Z,86.46
2017-05-05T08:18:44.560Z,86.41
2017-05-05T08:19:44.562Z,86.63
2017-05-05T08:20:44.559Z,86.07
2017-05-05T08:21:44.561Z,86.25
2017-05-05T08:22:44.565Z,87.00
2017-05-05T08:23:44.587Z,86.09
2017-05-05T08:24:44.576Z,85.88
2017-05-05T08:25:44.577Z,85.58
2017-05-05T08:26:44.575Z,86.30
2017-05-05T08:27:44.579Z,86.71
2017-05-05T08:28:44.603Z,85.58
2017-05-05T08:29:44.581Z,85.30
2017-05-05T08:30:44.589Z,85.08
2017-05-05T08:31:44.586Z,85.08
2017-05-05T08:32:44.579Z,85.08
2017-05-05T08:33:44.601Z,84.81
2017-05-05T08:34:44.600Z,85.46
2017-05-05T08:35:44.596Z,85.50
2017-05-05T08:36:44.595Z,86.09
2017-05-05T08:37:44.601Z,86.36
2017-05-05T08:38:44.604Z,86.04
2017-05-05T08:39:44.599Z,85.88
2017-05-05T08:40:44.597Z,85.27
2017-05-05T08:41:44.602Z,84.89
2017-05-05T08:42:44.604Z,86.12
2017-05-05T08:43:44.504Z,85.75
2017-05-05T08:44:44.554Z,86.20
2017-05-05T08:45:44.548Z,86.60
2017-05-05T08:46:44.588Z,86.97
2017-05-05T08:47:44.564Z,85.53
2017-05-05T08:48:44.551Z,85.50
2017-05-05T08:49:44.562Z,85.88
2017-05-05T08:50:44.505Z,87.00
2017-05-05T08:51:44.550Z,85.27
2017-05-05T08:52:44.551Z,85.96
2017-05-05T08:53:44.606Z,86.07
2017-05-05T08:54:44.612Z,85.19
2017-05-05T08:55:44.569Z,85.46
2017-05-05T08:56:44.610Z,84.71
2017-05-05T08:57:44.713Z,85.27
2017-05-05T08:58:44.632Z,85.46
2017-05-05T08:59:44.614Z,85.27
2017-05-05T09:00:44.632Z,85.53
2017-05-05T09:01:44.607Z,86.12
2017-05-05T09:02:44.609Z,86.07
2017-05-05T09:03:44.635Z,86.38
2017-05-05T09:04:44.612Z,86.68
2017-05-05T09:05:44.609Z,86.52
2017-05-05T09:06:44.609Z,86.71
2017-05-05T09:07:44.637Z,86.65
2017-05-05T09:08:44.616Z,86.91
2017-05-05T09:09:44.576Z,87.34
2017-05-05T09:10:44.622Z,86.41
2017-05-05T09:11:44.596Z,87.32
2017-05-05T09:12:44.618Z,85.85
2017-05-05T09:13:44.601Z,86.28
2017-05-05T09:14:44.597Z,86.30
2017-05-05T09:15:44.601Z,86.28
2017-05-05T09:16:44.599Z,85.58
2017-05-05T09:17:44.700Z,85.99
2017-05-05T09:18:44.614Z,85.75
2017-05-05T09:19:44.605Z,86.22
2017-05-05T09:20:44.604Z,86.76
2017-05-05T09:21:44.601Z,85.99
2017-05-05T09:22:44.606Z,85.56
2017-05-05T09:23:44.619Z,85.24
2017-05-05T09:24:44.626Z,85.21
2017-05-05T09:25:44.583Z,85.38
2017-05-05T09:26:44.626Z,85.83
2017-05-05T09:27:44.621Z,85.38
2017-05-05T09:28:44.604Z,83.86
2017-05-05T09:29:44.627Z,85.00
2017-05-05T09:30:44.625Z,84.58
2017-05-05T09:31:44.625Z,83.17
2017-05-05T09:32:44.634Z,84.34
2017-05-05T09:33:44.627Z,83.57
2017-05-05T09:34:44.630Z,83.28
2017-05-05T09:35:44.731Z,82.48
2017-05-05T09:36:44.627Z,83.70
2017-05-05T09:37:44.626Z,82.43
2017-05-05T09:38:44.629Z,83.09
2017-05-05T09:39:44.630Z,82.32
2017-05-05T09:40:44.627Z,82.00
2017-05-05T09:41:44.648Z,82.48
2017-05-05T09:42:44.612Z,82.45
2017-05-05T09:43:44.628Z,82.27
2017-05-05T09:44:44.733Z,80.33
2017-05-05T09:45:44.629Z,82.00
2017-05-05T09:46:44.656Z,81.87
2017-05-05T09:47:44.634Z,81.29
2017-05-05T09:48:44.632Z,81.56
2017-05-05T09:49:44.639Z,80.89
2017-05-05T09:50:44.638Z,82.24
2017-05-05T09:51:44.595Z,80.71
2017-05-05T09:52:44.613Z,82.32
2017-05-05T09:53:44.614Z,82.06
2017-05-05T09:54:44.617Z,82.24
2017-05-05T09:55:44.618Z,83.06
2017-05-05T09:56:44.619Z,81.74
2017-05-05T09:57:44.618Z,82.82
2017-05-05T09:58:44.618Z,82.96
2017-05-05T09:59:44.622Z,82.00
2017-05-05T10:00:44.632Z,81.29
2017-05-05T10:01:44.625Z,81.32
2017-05-05T10:02:44.622Z,82.16
2017-05-05T10:03:44.640Z,81.26
2017-05-05T10:04:44.644Z,81.71
2017-05-05T10:05:44.619Z,82.32
2017-05-05T10:06:44.649Z,81.79
2017-05-05T10:07:44.640Z,82.40
2017-05-05T10:08:44.642Z,83.06
2017-05-05T10:09:44.647Z,82.53
2017-05-05T10:10:44.650Z,81.90
2017-05-05T10:11:44.642Z,82.21
2017-05-05T10:12:44.644Z,81.87
2017-05-05T10:13:44.654Z,81.13
2017-05-05T10:14:44.646Z,82.06
2017-05-05T10:15:44.627Z,82.80
2017-05-05T10:16:44.652Z,82.06
2017-05-05T10:17:44.655Z,79.89
2017-05-05T10:18:44.649Z,81.68
2017-05-05T10:19:44.651Z,81.74
2017-05-05T10:20:44.651Z,79.79
2017-05-05T10:21:44.676Z,79.57
2017-05-05T10:22:44.649Z,80.92
2017-05-05T10:23:44.619Z,80.79
2017-05-05T10:24:44.623Z,80.76
2017-05-05T10:25:44.626Z,80.21
2017-05-05T10:26:44.622Z,78.86
2017-05-05T10:27:44.626Z,81.00
2017-05-05T10:28:44.624Z,78.39
2017-05-05T10:29:44.629Z,78.31
2017-05-05T10:30:44.624Z,78.23
2017-05-05T10:31:44.626Z,79.36
2017-05-05T10:32:44.631Z,79.63
2017-05-05T10:33:44.640Z,78.91
2017-05-05T10:34:44.642Z,77.78
2017-05-05T10:35:44.644Z,78.20
2017-05-05T10:36:44.644Z,78.47
2017-05-05T10:37:44.654Z,78.15
2017-05-05T10:38:44.641Z,79.36
2017-05-05T10:39:44.643Z,79.17
2017-05-05T10:40:44.650Z,81.34
2017-05-05T10:41:44.643Z,79.31
2017-05-05T10:42:44.646Z,79.55
2017-05-05T10:43:44.639Z,80.02
2017-05-05T10:44:44.640Z,79.15
2017-05-05T10:45:44.651Z,78.75
2017-05-05T10:46:44.644Z,78.47
2017-05-05T10:47:44.634Z,80.39
2017-05-05T10:48:44.521Z,79.23
2017-05-05T10:49:44.566Z,79.81
2017-05-05T10:50:44.572Z,79.81
2017-05-05T10:51:44.567Z,79.86
2017-05-05T10:52:44.615Z,79.05
2017-05-05T10:53:44.569Z,80.87
2017-05-05T10:54:44.567Z,79.44
2017-05-05T10:55:44.613Z,78.05
2017-05-05T10:56:44.612Z,78.09
2017-05-05T10:57:44.561Z,78.97
2017-05-05T10:58:44.561Z,79.23
2017-05-05T10:59:44.574Z,80.23
2017-05-05T11:00:44.642Z,79.97
2017-05-05T11:01:44.565Z,78.67
2017-05-05T11:02:44.566Z,80.60
2017-05-05T11:03:44.608Z,78.07
2017-05-05T11:04:44.663Z,77.99
2017-05-05T11:05:44.622Z,79.86
2017-05-05T11:06:44.672Z,76.49
2017-05-05T11:07:44.653Z,77.17
2017-05-05T11:08:44.657Z,76.65
2017-05-05T11:09:44.674Z,76.91
2017-05-05T11:10:44.660Z,75.62
2017-05-05T11:11:44.659Z,74.44
2017-05-05T11:12:44.657Z,76.67
2017-05-05T11:13:44.657Z,74.73
2017-05-05T11:14:44.661Z,73.30
2017-05-05T11:15:44.662Z,72.04
2017-05-05T11:16:44.678Z,72.56
2017-05-05T11:17:44.645Z,71.52
2017-05-05T11:18:44.645Z,74.11
2017-05-05T11:19:44.649Z,73.71
2017-05-05T11:20:44.648Z,74.71
2017-05-05T11:21:44.653Z,72.93
2017-05-05T11:22:44.649Z,72.41
2017-05-05T11:23:44.750Z,72.04
2017-05-05T11:24:44.652Z,71.13
2017-05-05T11:25:44.647Z,70.74
2017-05-05T11:26:44.656Z,70.89
2017-05-05T11:27:44.688Z,72.53
2017-05-05T11:28:44.683Z,71.60
2017-05-05T11:29:44.692Z,72.33
2017-05-05T11:30:44.689Z,70.35
2017-05-05T11:31:44.685Z,71.94
2017-05-05T11:32:44.663Z,73.55
2017-05-05T11:33:44.685Z,72.30
2017-05-05T11:34:44.680Z,71.89
2017-05-05T11:35:44.688Z,70.01
2017-05-05T11:36:44.691Z,72.61
2017-05-05T11:37:44.690Z,74.71
2017-05-05T11:38:44.648Z,72.75
2017-05-05T11:39:44.822Z,72.38
2017-05-05T11:40:44.800Z,73.95
2017-05-05T11:41:44.686Z,75.23
2017-05-05T11:42:44.750Z,73.45
2017-05-05T11:43:44.691Z,74.60
2017-05-05T11:44:44.697Z,73.58
2017-05-05T11:45:44.695Z,74.08
2017-05-05T11:46:44.693Z,74.00
2017-05-05T11:47:44.702Z,73.42
2017-05-05T11:48:44.696Z,73.66
2017-05-05T11:49:44.696Z,73.45
2017-05-05T11:50:44.657Z,72.30
2017-05-05T11:51:44.695Z,72.38
2017-05-05T11:52:44.690Z,73.24
2017-05-05T11:53:44.675Z,73.53
2017-05-05T11:54:44.695Z,73.82
2017-05-05T11:55:44.699Z,74.52
2017-05-05T11:56:44.696Z,71.60
2017-05-05T11:57:44.659Z,71.39
2017-05-05T11:58:44.677Z,72.20
2017-05-05T11:59:44.662Z,73.79
2017-05-05T12:00:44.676Z,75.15
2017-05-05T12:01:44.706Z,73.66
2017-05-05T12:02:44.707Z,73.79
2017-05-05T12:03:44.704Z,72.98
2017-05-05T12:04:44.663Z,72.01
2017-05-05T12:05:44.701Z,73.30
2017-05-05T12:06:44.709Z,73.82
2017-05-05T12:07:44.693Z,72.80
2017-05-05T12:08:44.684Z,73.40
2017-05-05T12:09:44.703Z,73.85
2017-05-05T12:10:44.706Z,74.52
2017-05-05T12:11:44.758Z,74.16
2017-05-05T12:12:44.728Z,74.63
2017-05-05T12:13:44.711Z,74.00
2017-05-05T12:14:44.708Z,74.18
2017-05-05T12:15:44.726Z,74.99
2017-05-05T12:16:44.706Z,75.62
2017-05-05T12:17:44.669Z,75.62
2017-05-05T12:18:44.671Z,76.31
2017-05-05T12:19:44.734Z,75.65
2017-05-05T12:20:44.678Z,75.21
2017-05-05T12:21:44.733Z,75.34
2017-05-05T12:22:44.709Z,74.94
2017-05-05T12:23:44.712Z,73.95
2017-05-05T12:24:44.712Z,73.11
2017-05-05T12:25:44.712Z,73.95
2017-05-05T12:26:44.818Z,75.81
2017-05-05T12:27:44.719Z,74.42
2017-05-05T12:28:44.711Z,75.13
2017-05-05T12:29:44.713Z,74.18
2017-05-05T12:30:44.737Z,72.12
2017-05-05T12:31:44.675Z,72.77
2017-05-05T12:32:44.719Z,73.71
2017-05-05T12:33:44.722Z,72.51
2017-05-05T12:34:44.719Z,73.30
2017-05-05T12:35:44.738Z,73.55
2017-05-05T12:36:44.723Z,73.50
2017-05-05T12:37:44.726Z,72.61
2017-05-05T12:38:44.721Z,72.72
2017-05-05T12:39:44.815Z,74.18
2017-05-05T12:40:44.742Z,72.88
2017-05-05T12:41:44.721Z,74.63
2017-05-05T12:42:44.725Z,73.50
2017-05-05T12:43:44.724Z,70.92
2017-05-05T12:44:44.725Z,73.24
2017-05-05T12:45:44.726Z,72.80
2017-05-05T12:46:44.726Z,71.78
2017-05-05T12:47:44.724Z,70.68
2017-05-05T12:48:44.730Z,71.60
2017-05-05T12:49:44.725Z,71.34
2017-05-05T12:50:44.703Z,69.59
2017-05-05T12:51:44.726Z,69.46
2017-05-05T12:52:44.728Z,69.85